Time;durP1;ratioP1;P1;durP2;ratioP2;P2;SDS_P1;SDS_P2;PMS_P1;PMS_P2;Temp;Humidity;BMP_temperature;BMP_pressure;BME280_temperature;BME280_humidity;BME280_pressure;Samples;Min_cycle;Max_cycle;Signal;HPM_P1;HPM_P2
2023/04/30 00:01:43;;;;;;;1.97;1.80;;;11.60;99.90;;;;;;4994730;28;20418;-71
2023/04/30 00:04:09;;;;;;;0.60;0.60;;;11.60;99.90;;;;;;4993261;28;20195;-71
2023/04/30 00:06:34;;;;;;;1.27;1.20;;;11.50;99.90;;;;;;4994499;28;20419;-71
2023/04/30 00:09:00;;;;;;;0.70;0.70;;;11.50;99.90;;;;;;4994332;28;20259;-70
2023/04/30 00:11:26;;;;;;;2.07;0.50;;;11.40;99.90;;;;;;4994610;28;20176;-71
2023/04/30 00:13:52;;;;;;;1.63;0.83;;;11.40;99.90;;;;;;4994333;28;20711;-70
2023/04/30 00:16:18;;;;;;;1.80;1.27;;;11.20;99.90;;;;;;4994425;28;20408;-71
2023/04/30 00:18:43;;;;;;;1.57;1.20;;;11.10;99.90;;;;;;4994048;28;20226;-71
2023/04/30 00:21:09;;;;;;;1.43;1.03;;;11.00;99.90;;;;;;4994173;28;20184;-70
2023/04/30 00:23:35;;;;;;;0.80;0.77;;;10.90;99.90;;;;;;4994271;28;20239;-70
2023/04/30 00:26:00;;;;;;;0.77;0.77;;;10.70;99.90;;;;;;4994196;28;20192;-70
2023/04/30 00:28:26;;;;;;;1.40;0.90;;;10.70;99.90;;;;;;4994109;28;20168;-70
2023/04/30 00:30:52;;;;;;;2.55;2.35;;;10.70;99.90;;;;;;4994175;28;20176;-70
2023/04/30 00:33:18;;;;;;;1.07;0.80;;;10.60;99.80;;;;;;4994104;28;20299;-70
2023/04/30 00:35:44;;;;;;;1.23;1.03;;;10.50;99.90;;;;;;4993981;28;20458;-70
2023/04/30 00:38:09;;;;;;;1.50;1.40;;;10.40;99.90;;;;;;4994034;28;20175;-71
2023/04/30 00:40:36;;;;;;;2.40;2.00;;;10.30;99.90;;;;;;4994075;28;20246;-70
2023/04/30 00:43:02;;;;;;;1.70;0.98;;;10.20;99.90;;;;;;4994164;28;20176;-70
2023/04/30 00:45:28;;;;;;;1.60;0.93;;;10.20;99.90;;;;;;4994057;28;20203;-70
2023/04/30 00:47:54;;;;;;;0.80;0.80;;;10.10;99.90;;;;;;4993796;28;20230;-70
2023/04/30 00:50:20;;;;;;;1.03;1.03;;;10.00;99.90;;;;;;4993932;28;20176;-71
2023/04/30 00:52:45;;;;;;;4.67;1.70;;;9.90;99.90;;;;;;4993939;28;20427;-70
2023/04/30 00:55:12;;;;;;;3.20;1.07;;;9.90;99.90;;;;;;4993994;28;20762;-70
2023/04/30 00:57:39;;;;;;;1.27;1.27;;;9.90;99.90;;;;;;4993839;28;20168;-71
2023/04/30 01:00:08;;;;;;;1.08;1.02;;;9.80;99.90;;;;;;4993948;28;20176;-71
2023/04/30 01:02:35;;;;;;;0.73;0.73;;;9.80;99.90;;;;;;4994007;28;20176;-71
2023/04/30 01:05:02;;;;;;;1.25;0.80;;;9.70;99.90;;;;;;4993739;28;20204;-70
2023/04/30 01:07:28;;;;;;;0.82;0.82;;;9.70;99.90;;;;;;4993652;28;20168;-70
2023/04/30 01:09:54;;;;;;;2.35;1.05;;;9.70;99.90;;;;;;4993846;28;20176;-70
2023/04/30 01:12:26;;;;;;;0.63;0.63;;;9.70;99.90;;;;;;4993889;28;20637;-71
2023/04/30 01:15:28;;;;;;;1.75;1.42;;;9.60;99.90;;;;;;4993697;28;20486;-71
2023/04/30 01:18:16;;;;;;;0.70;0.70;;;9.60;99.90;;;;;;4993596;28;20199;-70
2023/04/30 01:21:02;;;;;;;0.82;0.82;;;9.50;99.90;;;;;;4993728;28;20222;-71
2023/04/30 01:23:53;;;;;;;1.30;1.25;;;9.50;99.90;;;;;;4993835;28;20161;-70
2023/04/30 01:26:46;;;;;;;6.38;1.50;;;9.50;99.90;;;;;;4993804;28;20165;-70
2023/04/30 01:29:15;;;;;;;1.10;1.10;;;9.40;99.90;;;;;;4993792;28;20272;-71
2023/04/30 01:31:42;;;;;;;2.58;0.80;;;9.40;99.90;;;;;;4993822;28;20200;-70
2023/04/30 01:34:08;;;;;;;0.63;0.63;;;9.40;99.90;;;;;;4997137;28;20601;-71
2023/04/30 01:37:00;;;;;;;1.80;1.53;;;9.40;99.90;;;;;;4997296;28;20256;-71
2023/04/30 01:39:54;;;;;;;1.52;1.42;;;9.50;99.90;;;;;;4997542;28;20255;-71
2023/04/30 01:42:21;;;;;;;1.77;0.95;;;9.50;99.90;;;;;;4997635;28;20156;-71
2023/04/30 01:44:53;;;;;;;1.10;1.00;;;9.50;99.90;;;;;;4997034;28;20200;-71
2023/04/30 01:47:37;;;;;;;4.43;1.83;;;9.40;99.90;;;;;;4996969;28;20172;-71
2023/04/30 01:50:28;;;;;;;0.63;0.63;;;9.40;99.90;;;;;;4997177;28;20169;-71
2023/04/30 01:52:58;;;;;;;1.13;1.02;;;9.40;99.90;;;;;;4996972;28;20238;-71
2023/04/30 01:55:29;;;;;;;0.95;0.75;;;9.50;99.90;;;;;;4996788;28;20231;-71
2023/04/30 01:57:59;;;;;;;0.70;0.70;;;9.40;99.90;;;;;;4996776;28;20227;-71
2023/04/30 02:00:26;;;;;;;1.67;1.17;;;9.40;99.90;;;;;;4997027;28;20175;-71
2023/04/30 02:02:52;;;;;;;3.80;1.38;;;9.40;99.90;;;;;;4996935;28;20254;-71
2023/04/30 02:05:17;;;;;;;1.30;1.30;;;9.30;99.90;;;;;;4996744;28;20238;-71
2023/04/30 02:07:46;;;;;;;9.00;3.50;;;9.30;99.90;;;;;;4996527;28;20702;-71
2023/04/30 02:10:12;;;;;;;0.73;0.73;;;9.30;99.90;;;;;;4996751;28;20169;-71
2023/04/30 02:12:38;;;;;;;0.80;0.80;;;9.40;99.90;;;;;;4996705;28;20176;-71
2023/04/30 02:15:05;;;;;;;1.58;1.58;;;9.40;99.90;;;;;;4996446;28;20203;-71
2023/04/30 02:17:31;;;;;;;11.05;1.35;;;9.50;99.90;;;;;;4996319;28;20623;-71
2023/04/30 02:19:58;;;;;;;2.15;1.00;;;9.40;99.90;;;;;;4996516;28;20176;-71
2023/04/30 02:22:24;;;;;;;1.58;1.45;;;9.40;99.90;;;;;;4996489;28;20172;-71
2023/04/30 02:24:50;;;;;;;2.20;1.07;;;9.40;99.90;;;;;;4996307;28;20192;-71
2023/04/30 02:27:15;;;;;;;0.82;0.82;;;9.40;99.90;;;;;;4996337;28;20410;-70
2023/04/30 02:29:41;;;;;;;2.47;2.23;;;9.40;99.90;;;;;;4996440;28;20187;-71
2023/04/30 02:32:07;;;;;;;1.23;1.13;;;9.60;99.90;;;;;;4996247;28;20547;-71
2023/04/30 02:34:33;;;;;;;1.55;1.45;;;9.50;99.90;;;;;;4996082;28;20730;-70
2023/04/30 02:36:59;;;;;;;0.90;0.87;;;9.50;99.90;;;;;;4996040;28;20176;-71
2023/04/30 02:39:24;;;;;;;0.67;0.43;;;9.60;99.90;;;;;;4996315;28;20177;-71
2023/04/30 02:41:50;;;;;;;1.63;1.53;;;9.70;99.90;;;;;;4996125;28;20171;-71
2023/04/30 02:44:16;;;;;;;1.53;1.13;;;9.70;99.90;;;;;;4995628;28;20427;-71
2023/04/30 02:46:41;;;;;;;1.17;1.17;;;9.70;99.90;;;;;;4995997;28;20187;-70
2023/04/30 02:49:07;;;;;;;2.03;1.87;;;9.70;99.90;;;;;;4995747;28;20267;-71
2023/04/30 02:51:32;;;;;;;0.60;0.60;;;9.70;99.90;;;;;;4995821;28;20214;-71
2023/04/30 02:53:58;;;;;;;2.07;1.97;;;9.50;99.90;;;;;;4996073;28;20183;-71
2023/04/30 02:56:24;;;;;;;2.40;1.23;;;9.70;99.90;;;;;;4995877;28;20672;-71
2023/04/30 02:58:49;;;;;;;1.50;1.50;;;9.70;99.90;;;;;;4995721;28;20176;-71
2023/04/30 03:01:15;;;;;;;2.33;2.20;;;9.70;99.90;;;;;;4995873;28;20505;-71
2023/04/30 03:03:40;;;;;;;1.03;1.00;;;9.80;99.90;;;;;;4995624;28;20249;-71
2023/04/30 03:06:06;;;;;;;1.33;1.27;;;9.90;99.90;;;;;;4995537;28;20238;-71
2023/04/30 03:08:32;;;;;;;1.07;0.97;;;9.80;99.90;;;;;;4995505;28;20176;-71
2023/04/30 03:10:57;;;;;;;0.87;0.87;;;9.90;99.90;;;;;;4995622;28;20263;-71
2023/04/30 03:13:26;;;;;;;3.37;3.03;;;9.90;99.90;;;;;;4995500;28;20255;-71
2023/04/30 03:16:05;;;;;;;3.28;2.38;;;9.90;99.90;;;;;;4995468;28;20234;-71
2023/04/30 03:18:30;;;;;;;1.00;1.00;;;9.90;99.90;;;;;;4994913;28;20179;-71
2023/04/30 03:20:56;;;;;;;1.93;1.27;;;10.10;99.90;;;;;;4995410;28;20213;-71
2023/04/30 03:23:22;;;;;;;0.60;0.60;;;10.20;99.90;;;;;;4995423;28;20633;-71
2023/04/30 03:25:48;;;;;;;1.45;1.42;;;10.20;99.90;;;;;;4995344;28;20231;-70
2023/04/30 03:28:14;;;;;;;2.80;2.60;;;10.20;99.90;;;;;;4995015;28;20200;-71
2023/04/30 03:30:40;;;;;;;2.20;2.00;;;10.30;99.90;;;;;;4995183;28;20791;-71
2023/04/30 03:33:06;;;;;;;1.65;1.15;;;10.30;99.90;;;;;;4995178;28;20172;-71
2023/04/30 03:35:32;;;;;;;0.80;0.80;;;;;;;;;;4994997;28;20202;-70
2023/04/30 03:37:59;;;;;;;1.05;0.85;;;10.30;99.90;;;;;;4994841;28;20172;-71
2023/04/30 03:40:24;;;;;;;1.00;0.82;;;10.30;99.90;;;;;;4995079;28;20179;-70
2023/04/30 03:42:50;;;;;;;0.57;0.57;;;10.30;99.90;;;;;;4994883;28;20168;-71
2023/04/30 03:45:16;;;;;;;0.60;0.60;;;10.40;99.90;;;;;;4994973;28;20541;-71
2023/04/30 03:47:42;;;;;;;2.53;2.30;;;10.40;99.90;;;;;;4994814;28;20648;-71
2023/04/30 03:50:08;;;;;;;1.15;1.05;;;10.30;99.90;;;;;;4994977;28;20172;-71
2023/04/30 03:52:35;;;;;;;0.93;0.93;;;10.40;99.90;;;;;;4994708;28;20192;-71
2023/04/30 03:55:02;;;;;;;1.25;1.25;;;10.30;99.90;;;;;;4994091;28;20617;-71
2023/04/30 03:57:28;;;;;;;1.23;1.23;;;10.30;99.90;;;;;;4994603;28;20254;-70
2023/04/30 03:59:54;;;;;;;1.53;1.47;;;10.20;99.90;;;;;;4994804;28;20200;-71
2023/04/30 04:02:20;;;;;;;0.85;0.85;;;10.20;99.90;;;;;;4994723;28;20169;-70
2023/04/30 04:04:46;;;;;;;0.95;0.52;;;10.20;99.90;;;;;;4994625;28;20235;-71
2023/04/30 04:07:12;;;;;;;1.30;1.30;;;10.20;99.90;;;;;;4994597;28;20596;-71
2023/04/30 04:09:38;;;;;;;0.90;0.90;;;10.20;99.90;;;;;;4994663;28;20255;-71
2023/04/30 04:12:04;;;;;;;0.50;0.50;;;10.10;99.90;;;;;;4994471;28;20176;-71
2023/04/30 04:14:30;;;;;;;3.72;1.88;;;10.10;99.90;;;;;;4994422;28;20242;-71
2023/04/30 04:17:04;;;;;;;0.80;0.80;;;10.00;99.90;;;;;;4994343;28;20173;-71
2023/04/30 04:19:30;;;;;;;0.50;0.50;;;10.00;99.90;;;;;;4994517;28;20251;-71
2023/04/30 04:21:56;;;;;;;0.67;0.60;;;10.10;99.90;;;;;;4994461;28;20259;-71
2023/04/30 04:24:24;;;;;;;1.20;0.90;;;10.10;99.90;;;;;;4994319;28;20196;-70
2023/04/30 04:26:50;;;;;;;2.88;2.67;;;10.10;99.90;;;;;;4994597;28;20180;-71
2023/04/30 04:29:15;;;;;;;1.43;0.97;;;10.10;99.90;;;;;;4994284;28;20283;-71
2023/04/30 04:31:41;;;;;;;1.07;1.07;;;10.10;99.90;;;;;;4994113;28;20176;-70
2023/04/30 04:34:07;;;;;;;1.87;1.33;;;10.10;99.90;;;;;;4994174;28;20180;-71
2023/04/30 04:36:33;;;;;;;0.60;0.60;;;10.00;99.90;;;;;;4994094;28;20410;-71
2023/04/30 04:39:02;;;;;;;2.83;1.70;;;10.10;99.90;;;;;;4993842;28;20414;-71
2023/04/30 04:41:29;;;;;;;1.20;1.05;;;10.10;99.90;;;;;;4994075;28;20215;-70
2023/04/30 04:43:55;;;;;;;0.40;0.40;;;10.10;99.90;;;;;;4994007;28;20204;-71
2023/04/30 04:46:22;;;;;;;0.45;0.45;;;10.20;99.90;;;;;;4994076;28;20173;-71
2023/04/30 04:48:48;;;;;;;1.08;1.08;;;10.30;99.90;;;;;;4993824;28;20168;-71
2023/04/30 04:51:13;;;;;;;1.95;1.35;;;10.30;99.90;;;;;;4994097;28;20168;-71
2023/04/30 04:53:39;;;;;;;1.80;0.70;;;10.40;99.90;;;;;;4993817;28;20246;-71
2023/04/30 04:56:06;;;;;;;0.87;0.87;;;10.40;99.90;;;;;;4993786;28;20195;-71
2023/04/30 04:58:31;;;;;;;0.85;0.85;;;10.50;99.90;;;;;;4993840;28;20168;-71
2023/04/30 05:00:58;;;;;;;1.73;1.60;;;10.60;99.70;;;;;;4993928;28;20254;-71
2023/04/30 05:03:25;;;;;;;1.38;1.27;;;10.70;99.60;;;;;;4993855;28;20461;-71
2023/04/30 05:05:51;;;;;;;0.30;0.30;;;10.70;99.40;;;;;;4994316;28;20266;-70
2023/04/30 05:08:17;;;;;;;1.43;1.33;;;10.70;99.40;;;;;;4997712;28;20629;-71
2023/04/30 05:10:43;;;;;;;2.67;1.60;;;10.90;99.00;;;;;;4997752;28;20176;-71
2023/04/30 05:13:08;;;;;;;0.60;0.60;;;10.90;98.80;;;;;;4997822;28;20505;-71
2023/04/30 05:15:34;;;;;;;2.10;1.87;;;11.00;98.40;;;;;;4997791;28;20252;-71
2023/04/30 05:18:00;;;;;;;0.50;0.50;;;11.00;98.40;;;;;;4997439;28;20255;-71
2023/04/30 05:20:25;;;;;;;0.90;0.90;;;11.00;98.40;;;;;;4997708;28;20164;-71
2023/04/30 05:22:51;;;;;;;0.63;0.63;;;11.00;98.30;;;;;;4997540;28;20172;-71
2023/04/30 05:25:17;;;;;;;0.73;0.73;;;11.10;98.40;;;;;;4997443;28;20207;-71
2023/04/30 05:27:42;;;;;;;1.90;1.13;;;11.40;98.00;;;;;;4997211;28;20230;-71
2023/04/30 05:30:08;;;;;;;1.47;1.37;;;11.90;97.90;;;;;;4997360;28;20177;-71
2023/04/30 05:32:34;;;;;;;0.60;0.60;;;12.20;96.90;;;;;;4997341;28;20176;-70
2023/04/30 05:35:00;;;;;;;1.00;0.60;;;12.30;96.10;;;;;;4997355;28;20468;-71
2023/04/30 05:37:26;;;;;;;1.43;0.93;;;12.40;96.20;;;;;;4997296;28;20407;-71
2023/04/30 05:39:52;;;;;;;4.60;1.63;;;;;;;;;;4997441;28;20490;-71
2023/04/30 05:42:19;;;;;;;1.60;1.50;;;14.10;92.80;;;;;;4997243;28;20171;-71
2023/04/30 05:44:45;;;;;;;0.53;0.53;;;14.40;92.40;;;;;;4997078;28;20430;-72
2023/04/30 05:47:10;;;;;;;1.43;1.30;;;14.80;91.60;;;;;;4996948;28;20485;-71
2023/04/30 05:49:36;;;;;;;1.67;1.57;;;14.70;90.30;;;;;;4997268;28;20208;-72
2023/04/30 05:52:02;;;;;;;1.53;1.07;;;14.60;90.20;;;;;;4997342;28;20217;-71
2023/04/30 05:54:29;;;;;;;0.97;0.60;;;14.60;90.30;;;;;;4996868;28;20766;-71
2023/04/30 05:56:55;;;;;;;0.70;0.70;;;14.70;90.80;;;;;;4996813;28;20490;-71
2023/04/30 05:59:20;;;;;;;1.80;1.30;;;15.20;90.00;;;;;;4996959;28;20495;-71
2023/04/30 06:01:46;;;;;;;1.43;1.00;;;15.70;86.50;;;;;;4997036;28;20203;-71
2023/04/30 06:04:12;;;;;;;0.77;0.70;;;16.20;84.30;;;;;;4996669;28;20195;-71
2023/04/30 06:06:37;;;;;;;1.50;1.03;;;17.00;81.30;;;;;;4996707;28;20178;-72
2023/04/30 06:09:03;;;;;;;0.70;0.70;;;17.80;80.60;;;;;;4996529;28;20510;-72
2023/04/30 06:11:29;;;;;;;0.97;0.97;;;19.00;73.90;;;;;;4996579;28;20172;-71
2023/04/30 06:13:55;;;;;;;1.07;0.60;;;19.90;84.90;;;;;;4996574;28;20200;-72
2023/04/30 06:16:21;;;;;;;2.10;1.17;;;19.90;65.40;;;;;;4996569;28;20443;-71
2023/04/30 06:18:47;;;;;;;0.83;0.60;;;19.40;67.00;;;;;;4995610;28;20418;-72
2023/04/30 06:21:12;;;;;;;0.70;0.70;;;18.70;67.10;;;;;;4996635;28;20187;-72
2023/04/30 06:23:38;;;;;;;0.63;0.50;;;18.20;67.20;;;;;;4996714;28;20630;-72
2023/04/30 06:26:03;;;;;;;0.60;0.60;;;17.70;68.40;;;;;;4996382;28;20201;-71
2023/04/30 06:28:29;;;;;;;0.53;0.53;;;17.30;72.70;;;;;;4996278;28;20177;-71
2023/04/30 06:30:55;;;;;;;0.83;0.80;;;17.10;71.50;;;;;;4996498;28;20504;-72
2023/04/30 06:33:21;;;;;;;0.70;0.70;;;16.80;74.80;;;;;;4996357;28;20573;-71
2023/04/30 06:35:46;;;;;;;0.50;0.50;;;17.20;72.10;;;;;;4996490;28;20459;-71
2023/04/30 06:38:13;;;;;;;0.80;0.80;;;17.00;72.10;;;;;;4996050;28;20194;-71
2023/04/30 06:40:39;;;;;;;0.60;0.60;;;17.10;72.50;;;;;;4996237;28;20193;-71
2023/04/30 06:43:04;;;;;;;1.00;1.00;;;17.30;69.90;;;;;;4996245;28;20893;-72
2023/04/30 06:45:30;;;;;;;0.40;0.40;;;17.20;70.40;;;;;;4996323;28;20626;-72
2023/04/30 06:47:56;;;;;;;1.07;1.07;;;17.10;70.40;;;;;;4995776;28;20173;-71
2023/04/30 06:50:22;;;;;;;0.77;0.77;;;16.60;72.00;;;;;;4995939;28;20645;-72
2023/04/30 06:52:47;;;;;;;1.00;1.00;;;16.50;73.80;;;;;;4995823;28;20492;-72
2023/04/30 06:55:13;;;;;;;0.87;0.67;;;16.20;74.50;;;;;;4995744;28;20673;-71
2023/04/30 06:57:39;;;;;;;2.30;1.63;;;;;;;;;;4995799;28;20208;-71
2023/04/30 07:00:07;;;;;;;0.87;0.87;;;16.40;71.50;;;;;;4995747;28;20202;-71
2023/04/30 07:02:33;;;;;;;0.43;0.43;;;16.50;71.80;;;;;;4995878;28;20432;-71
2023/04/30 07:04:58;;;;;;;0.60;0.57;;;16.50;72.40;;;;;;4995619;28;20462;-71
2023/04/30 07:07:24;;;;;;;1.43;1.33;;;16.40;71.70;;;;;;4995613;28;20180;-71
2023/04/30 07:09:52;;;;;;;1.23;1.17;;;16.30;72.70;;;;;;4995936;28;20190;-72
2023/04/30 07:12:17;;;;;;;1.00;0.80;;;16.30;73.10;;;;;;4995697;28;20538;-71
2023/04/30 07:14:44;;;;;;;0.87;0.87;;;16.50;72.00;;;;;;4995434;28;20474;-72
2023/04/30 07:17:10;;;;;;;1.07;1.07;;;17.20;72.30;;;;;;4995488;28;20179;-72
2023/04/30 07:19:36;;;;;;;0.60;0.60;;;18.10;70.50;;;;;;4995362;28;20409;-72
2023/04/30 07:22:01;;;;;;;0.70;0.70;;;18.40;68.00;;;;;;4994516;28;20438;-72
2023/04/30 07:24:27;;;;;;;0.40;0.40;;;18.60;69.00;;;;;;4995499;28;20198;-71
2023/04/30 07:26:53;;;;;;;0.50;0.50;;;19.40;67.00;;;;;;4995148;28;20318;-71
2023/04/30 07:29:19;;;;;;;2.70;0.70;;;19.70;62.90;;;;;;4994864;28;20180;-72
2023/04/30 07:31:44;;;;;;;1.33;1.23;;;19.00;62.60;;;;;;4994931;28;20183;-72
2023/04/30 07:34:10;;;;;;;0.50;0.50;;;18.60;65.10;;;;;;4994991;28;20193;-72
2023/04/30 07:36:37;;;;;;;0.73;0.73;;;18.40;65.20;;;;;;4995274;28;20178;-71
2023/04/30 07:39:03;;;;;;;1.43;1.33;;;17.90;66.70;;;;;;4994936;28;20535;-71
2023/04/30 07:41:28;;;;;;;0.77;0.77;;;17.20;68.40;;;;;;4994949;28;20421;-71
2023/04/30 07:43:54;;;;;;;1.50;0.83;;;16.70;86.40;;;;;;4995291;28;20688;-71
2023/04/30 07:46:20;;;;;;;0.50;0.50;;;16.90;69.60;;;;;;4994820;28;20207;-71
2023/04/30 07:48:45;;;;;;;1.13;1.03;;;16.60;70.50;;;;;;4993379;28;20189;-72
2023/04/30 07:51:18;;;;;;;0.60;0.60;;;16.10;76.40;;;;;;5071150;28;20519;-70
2023/04/30 07:53:44;;;;;;;1.20;1.10;;;16.00;74.60;;;;;;5070985;28;20434;-71
2023/04/30 07:56:10;;;;;;;2.23;2.03;;;16.20;74.90;;;;;;5070525;28;20527;-70
2023/04/30 07:58:35;;;;;;;0.50;0.43;;;16.60;73.50;;;;;;5070479;28;20403;-70
2023/04/30 08:01:01;;;;;;;0.50;0.50;;;16.80;72.50;;;;;;5070685;28;20205;-71
2023/04/30 08:03:27;;;;;;;0.50;0.50;;;16.80;72.30;;;;;;5070465;28;20611;-71
2023/04/30 08:05:52;;;;;;;0.43;0.43;;;16.60;71.50;;;;;;5070437;28;20189;-70
2023/04/30 08:08:18;;;;;;;0.67;0.63;;;16.10;73.10;;;;;;5070403;28;20165;-70
2023/04/30 08:10:44;;;;;;;1.10;1.00;;;16.90;71.90;;;;;;5070326;28;20200;-71
2023/04/30 08:13:09;;;;;;;0.50;0.50;;;17.40;71.30;;;;;;5070452;28;20167;-71
2023/04/30 08:15:36;;;;;;;1.03;0.80;;;17.70;70.50;;;;;;5070136;28;20278;-70
2023/04/30 08:18:02;;;;;;;0.50;0.50;;;17.90;69.90;;;;;;5069984;28;20295;-70
2023/04/30 08:20:28;;;;;;;0.90;0.90;;;18.30;68.90;;;;;;5070165;28;20434;-71
2023/04/30 08:22:53;;;;;;;0.50;0.50;;;18.40;70.60;;;;;;5070150;28;20410;-71
2023/04/30 08:25:19;;;;;;;3.13;1.33;;;18.20;69.40;;;;;;5069957;28;20713;-70
2023/04/30 08:27:45;;;;;;;0.90;0.90;;;16.70;70.70;;;;;;5069859;28;20665;-70
2023/04/30 08:30:11;;;;;;;0.90;0.90;;;16.00;74.00;;;;;;5069977;28;20193;-70
2023/04/30 08:32:37;;;;;;;0.80;0.80;;;15.80;76.60;;;;;;5069881;28;20166;-71
2023/04/30 08:35:06;;;;;;;0.87;0.87;;;16.20;73.80;;;;;;5069760;28;20923;-70
2023/04/30 08:37:32;;;;;;;0.57;0.57;;;16.30;73.00;;;;;;5069600;28;20200;-70
2023/04/30 08:39:58;;;;;;;1.90;1.23;;;16.20;74.10;;;;;;5069849;28;20407;-70
2023/04/30 08:42:28;;;;;;;0.60;0.60;;;16.10;76.50;;;;;;5069717;28;20617;-71
2023/04/30 08:44:53;;;;;;;1.60;1.07;;;16.80;77.50;;;;;;5069890;28;20426;-71
2023/04/30 08:47:20;;;;;;;1.13;1.13;;;17.50;77.40;;;;;;5069839;28;20419;-71
2023/04/30 08:49:46;;;;;;;0.60;0.60;;;17.80;73.20;;;;;;5069298;28;20219;-71
2023/04/30 08:52:12;;;;;;;0.60;0.60;;;18.10;70.10;;;;;;5069615;28;20884;-71
2023/04/30 08:54:38;;;;;;;0.50;0.50;;;17.80;69.70;;;;;;5069429;28;20510;-71
2023/04/30 08:57:04;;;;;;;2.93;1.83;;;17.80;68.90;;;;;;5069357;28;20640;-71
2023/04/30 08:59:30;;;;;;;0.97;0.97;;;17.60;70.00;;;;;;5069242;28;20910;-71
2023/04/30 09:01:56;;;;;;;0.60;0.60;;;17.70;69.20;;;;;;5060180;28;20531;-71
2023/04/30 09:04:21;;;;;;;0.63;0.63;;;18.30;70.70;;;;;;5056217;28;20203;-70
2023/04/30 09:06:47;;;;;;;0.83;0.83;;;18.40;67.60;;;;;;5055848;28;20192;-71
2023/04/30 09:09:15;;;;;;;0.40;0.40;;;17.70;69.00;;;;;;5056085;28;20187;-71
2023/04/30 09:11:41;;;;;;;1.27;1.27;;;17.20;70.40;;;;;;5055991;28;20656;-72
2023/04/30 09:14:07;;;;;;;0.70;0.70;;;17.00;71.40;;;;;;5056189;28;20416;-71
2023/04/30 09:16:50;;;;;;;1.80;1.70;;;16.90;70.50;;;;;;5055819;28;20427;-71
2023/04/30 09:19:29;;;;;;;0.63;0.63;;;17.00;70.80;;;;;;5055741;28;20404;-71
2023/04/30 09:21:55;;;;;;;0.90;0.60;;;17.00;71.00;;;;;;5055893;28;20402;-71
2023/04/30 09:24:21;;;;;;;1.53;1.33;;;16.80;73.20;;;;;;5055726;28;20436;-71
2023/04/30 09:26:48;;;;;;;0.40;0.40;;;16.10;74.80;;;;;;5055430;28;20467;-71
2023/04/30 09:29:14;;;;;;;1.13;1.13;;;16.10;78.80;;;;;;5055687;28;20516;-71
2023/04/30 09:31:43;;;;;;;0.33;0.33;;;16.30;74.50;;;;;;5055593;28;20400;-71
2023/04/30 09:34:10;;;;;;;1.30;0.67;;;16.60;73.20;;;;;;5055585;28;20434;-71
2023/04/30 09:36:36;;;;;;;1.03;1.03;;;16.70;74.80;;;;;;5055497;28;20406;-71
2023/04/30 09:39:06;;;;;;;0.50;0.50;;;16.80;73.20;;;;;;5055261;28;20809;-71
2023/04/30 09:41:31;;;;;;;0.50;0.50;;;16.90;74.90;;;;;;5055404;28;20484;-72
2023/04/30 09:43:57;;;;;;;0.80;0.80;;;16.30;93.50;;;;;;5055355;28;20484;-71
2023/04/30 09:46:36;;;;;;;1.13;1.07;;;16.60;74.90;;;;;;5055285;28;20178;-72
2023/04/30 09:49:04;;;;;;;0.93;0.93;;;16.80;74.50;;;;;;5054833;28;20372;-71
2023/04/30 09:51:30;;;;;;;1.03;1.03;;;17.00;74.00;;;;;;5055301;28;20406;-71
2023/04/30 09:53:56;;;;;;;0.90;0.90;;;17.70;90.20;;;;;;5055126;28;20401;-71
2023/04/30 09:56:24;;;;;;;1.63;0.80;;;17.50;74.20;;;;;;5055222;28;20401;-72
2023/04/30 09:58:54;;;;;;;1.23;1.23;;;17.40;71.50;;;;;;5054911;28;20874;-71
2023/04/30 10:01:22;;;;;;;1.63;0.83;;;17.30;72.50;;;;;;5055219;28;20405;-71
2023/04/30 10:03:49;;;;;;;0.60;0.60;;;17.50;93.10;;;;;;5055016;28;20407;-71
2023/04/30 10:06:18;;;;;;;0.40;0.40;;;17.30;73.10;;;;;;5055376;28;20427;-71
2023/04/30 10:08:48;;;;;;;0.50;0.50;;;17.00;75.70;;;;;;5054750;28;20406;-71
2023/04/30 10:11:20;;;;;;;0.70;0.70;;;17.30;75.00;;;;;;5055064;28;20458;-71
2023/04/30 10:14:01;;;;;;;1.33;1.30;;;17.60;73.40;;;;;;5053944;28;20460;-71
2023/04/30 10:16:42;;;;;;;0.67;0.67;;;17.80;73.70;;;;;;5054653;28;20399;-71
2023/04/30 10:19:17;;;;;;;0.47;0.47;;;17.80;71.90;;;;;;5054566;28;20405;-71
2023/04/30 10:21:45;;;;;;;0.50;0.50;;;18.00;71.30;;;;;;5054926;28;20487;-71
2023/04/30 10:24:13;;;;;;;0.50;0.50;;;18.20;70.90;;;;;;5054593;28;20415;-71
2023/04/30 10:26:40;;;;;;;0.47;0.47;;;18.20;72.00;;;;;;5054517;28;20415;-71
2023/04/30 10:29:07;;;;;;;1.07;0.60;;;18.30;71.20;;;;;;5054240;28;20945;-71
2023/04/30 10:31:33;;;;;;;0.80;0.80;;;18.30;71.00;;;;;;5054727;28;20398;-71
2023/04/30 10:34:15;;;;;;;1.33;1.33;;;17.90;90.80;;;;;;5054516;28;20415;-71
2023/04/30 10:36:53;;;;;;;0.60;0.60;;;18.10;69.40;;;;;;5054409;28;20423;-71
2023/04/30 10:39:22;;;;;;;1.03;1.03;;;18.50;70.30;;;;;;5054120;28;20417;-71
2023/04/30 10:41:48;;;;;;;0.40;0.40;;;18.70;68.40;;;;;;5054203;28;20539;-71
2023/04/30 10:44:20;;;;;;;0.80;0.70;;;19.00;67.50;;;;;;5054169;28;20432;-71
2023/04/30 10:46:46;;;;;;;1.00;0.93;;;19.00;66.00;;;;;;5053983;28;20610;-70
2023/04/30 10:49:13;;;;;;;0.40;0.40;;;18.90;68.20;;;;;;5053980;28;20477;-71
2023/04/30 10:51:53;;;;;;;0.47;0.47;;;19.10;68.10;;;;;;5054261;28;20652;-71
2023/04/30 10:54:31;;;;;;;0.40;0.40;;;19.30;65.30;;;;;;5054145;28;20466;-71
2023/04/30 10:57:18;;;;;;;0.40;0.40;;;19.30;67.70;;;;;;5053868;28;20403;-71
2023/04/30 11:00:13;;;;;;;0.40;0.40;;;19.40;65.60;;;;;;5054088;28;20926;-71
2023/04/30 11:02:45;;;;;;;0.50;0.50;;;19.50;65.20;;;;;;5053980;28;20489;-71
2023/04/30 11:05:18;;;;;;;0.47;0.47;;;19.70;65.10;;;;;;5053622;28;20424;-70
2023/04/30 11:07:57;;;;;;;0.50;0.40;;;19.50;63.00;;;;;;5053580;28;20406;-71
2023/04/30 11:10:25;;;;;;;1.80;1.70;;;18.80;64.30;;;;;;5054097;28;20437;-71
2023/04/30 11:12:53;;;;;;;0.60;0.60;;;18.40;66.00;;;;;;5053686;28;20408;-71
2023/04/30 11:15:26;;;;;;;0.47;0.47;;;17.80;65.20;;;;;;5053585;28;20473;-71
2023/04/30 11:17:57;;;;;;;0.50;0.50;;;17.50;65.90;;;;;;5053542;28;20405;-71
2023/04/30 11:20:24;;;;;;;0.40;0.40;;;17.20;67.40;;;;;;5053885;28;20742;-71
2023/04/30 11:23:10;;;;;;;0.50;0.50;;;16.90;69.00;;;;;;5053641;28;20406;-71
2023/04/30 11:25:46;;;;;;;0.40;0.40;;;17.10;67.60;;;;;;5053198;28;20842;-71
2023/04/30 11:28:17;;;;;;;0.70;0.70;;;17.40;67.40;;;;;;5053481;28;20395;-71
2023/04/30 11:30:53;;;;;;;0.60;0.60;;;17.50;70.10;;;;;;5053320;28;20538;-71
2023/04/30 11:33:19;;;;;;;0.80;0.80;;;17.90;66.00;;;;;;5053465;28;20412;-71
2023/04/30 11:35:44;;;;;;;0.50;0.50;;;18.00;65.70;;;;;;5053329;28;20437;-71
2023/04/30 11:38:12;;;;;;;0.60;0.60;;;18.20;65.40;;;;;;5053195;28;20899;-71
2023/04/30 11:40:39;;;;;;;0.60;0.60;;;18.50;65.20;;;;;;5053326;28;20176;-71
2023/04/30 11:43:04;;;;;;;1.50;1.27;;;18.70;63.90;;;;;;5053400;28;20489;-71
2023/04/30 11:45:30;;;;;;;1.20;1.00;;;19.00;64.10;;;;;;5053375;28;20846;-72
2023/04/30 11:47:56;;;;;;;1.30;0.80;;;19.30;62.50;;;;;;5052952;28;20173;-71
2023/04/30 11:50:27;;;;;;;0.30;0.30;;;19.30;64.00;;;;;;5053021;28;20672;-71
2023/04/30 11:52:55;;;;;;;0.53;0.50;;;19.50;62.10;;;;;;5053385;28;20448;-71
2023/04/30 11:55:23;;;;;;;0.40;0.40;;;19.40;61.10;;;;;;5053070;28;20499;-71
2023/04/30 11:57:58;;;;;;;0.50;0.50;;;19.50;60.30;;;;;;5052980;28;20759;-71
2023/04/30 12:00:30;;;;;;;0.43;0.40;;;19.30;59.70;;;;;;5051992;28;20771;-72
2023/04/30 12:02:59;;;;;;;0.50;0.50;;;19.10;61.90;;;;;;5053202;28;20479;-71
2023/04/30 12:05:26;;;;;;;0.47;0.47;;;19.10;61.10;;;;;;5052992;28;20428;-72
2023/04/30 12:08:05;;;;;;;0.40;0.40;;;19.20;63.80;;;;;;5052931;28;20405;-71
2023/04/30 12:10:31;;;;;;;0.57;0.50;;;19.00;59.90;;;;;;5053206;28;20479;-72
2023/04/30 12:12:57;;;;;;;0.40;0.40;;;18.80;59.70;;;;;;5052880;28;20404;-71
2023/04/30 12:15:27;;;;;;;0.50;0.50;;;18.80;60.80;;;;;;5052839;28;20501;-71
2023/04/30 12:17:58;;;;;;;0.60;0.60;;;18.80;60.00;;;;;;5053065;28;20204;-71
2023/04/30 12:20:25;;;;;;;1.47;1.37;;;18.70;60.20;;;;;;5052945;28;20400;-71
2023/04/30 12:22:51;;;;;;;0.70;0.70;;;18.80;63.10;;;;;;5052954;28;20806;-71
2023/04/30 12:25:19;;;;;;;0.60;0.40;;;18.90;61.10;;;;;;5052859;28;20442;-71
2023/04/30 12:27:46;;;;;;;0.40;0.40;;;18.80;60.20;;;;;;5052561;28;20411;-71
2023/04/30 12:30:12;;;;;;;0.50;0.50;;;18.50;61.30;;;;;;5052728;28;20458;-71
2023/04/30 12:32:39;;;;;;;1.00;0.77;;;18.40;61.30;;;;;;5052788;28;20407;-71
2023/04/30 12:35:06;;;;;;;0.93;0.93;;;18.10;61.80;;;;;;5052594;28;20439;-71
2023/04/30 12:37:31;;;;;;;0.50;0.50;;;17.80;64.20;;;;;;5055418;28;20404;-71
2023/04/30 12:39:58;;;;;;;0.50;0.50;;;17.70;64.60;;;;;;5056664;28;20490;-72
2023/04/30 12:42:24;;;;;;;0.50;0.50;;;17.80;63.20;;;;;;5056447;28;20413;-71
2023/04/30 12:44:49;;;;;;;0.70;0.70;;;17.70;63.90;;;;;;5056512;28;20798;-71
2023/04/30 12:47:15;;;;;;;0.77;0.77;;;17.70;64.60;;;;;;5056135;28;20400;-71
2023/04/30 12:49:43;;;;;;;0.80;0.80;;;17.70;62.70;;;;;;5056119;28;20232;-71
2023/04/30 12:52:11;;;;;;;0.60;0.60;;;17.40;63.20;;;;;;5056461;28;20675;-71
2023/04/30 12:54:37;;;;;;;0.50;0.50;;;17.20;66.00;;;;;;5056265;28;20430;-71